LTAD/ANK METAR and TAF weather

Enter ICAO airport designator
Station Type Date Time Source
LTAD METAR 2019/10/15 02:50 UTC NOAA

LTAD 150250Z 09001KT CAVOK 06/01 Q1024 NOSIG RMK RWY29 00000KT


Station Type Date Time Source
LTAD Decoded METAR 2019/10/15 02:50 UTC NOAA

Ankara / Etimesgut, Turkey (LTAD) 39-57N 032-41E 806M
Oct 14, 2019 - 10:50 PM EDT / 2019.10.15 0250 UTC
Wind: from the E (090 degrees) at 1 MPH (1 KT):0
Visibility: greater than 7 mile(s):0
Temperature: 42 F (6 C)
Dew Point: 33 F (1 C)
Relative Humidity: 70%
Pressure (altimeter): 30.24 in. Hg (1024 hPa)
ob: LTAD 150250Z 09001KT CAVOK 06/01 Q1024 NOSIG RMK RWY29 00000KT
cycle: 3

Station Type Date Time Source
LTAD TAF UTC NOAA

Error!

Example: see airport list